sensor_id;sensor_type;location;lat;lon;timestamp;P1;durP1;ratioP1;P2;durP2;ratioP2
71502;SDS011;59322;51.382;7.372;2023-07-09T00:01:35;8.70;;;5.38;;
71502;SDS011;59322;51.382;7.372;2023-07-09T00:04:01;10.20;;;5.30;;
71502;SDS011;59322;51.382;7.372;2023-07-09T00:06:27;10.68;;;5.07;;
71502;SDS011;59322;51.382;7.372;2023-07-09T00:08:53;13.20;;;5.60;;
71502;SDS011;59322;51.382;7.372;2023-07-09T00:11:19;8.55;;;5.25;;
71502;SDS011;59322;51.382;7.372;2023-07-09T00:13:45;8.90;;;5.43;;
71502;SDS011;59322;51.382;7.372;2023-07-09T00:16:12;10.57;;;5.50;;
71502;SDS011;59322;51.382;7.372;2023-07-09T00:18:38;9.27;;;5.20;;
71502;SDS011;59322;51.382;7.372;2023-07-09T00:21:04;8.57;;;5.60;;
71502;SDS011;59322;51.382;7.372;2023-07-09T00:23:30;7.90;;;5.68;;
71502;SDS011;59322;51.382;7.372;2023-07-09T00:25:56;10.18;;;5.70;;
71502;SDS011;59322;51.382;7.372;2023-07-09T00:28:22;9.95;;;5.55;;
71502;SDS011;59322;51.382;7.372;2023-07-09T00:30:48;8.27;;;5.20;;
71502;SDS011;59322;51.382;7.372;2023-07-09T00:33:14;9.15;;;5.32;;
71502;SDS011;59322;51.382;7.372;2023-07-09T00:35:44;7.32;;;4.93;;
71502;SDS011;59322;51.382;7.372;2023-07-09T00:38:20;9.50;;;5.85;;
71502;SDS011;59322;51.382;7.372;2023-07-09T00:40:48;7.72;;;5.55;;
71502;SDS011;59322;51.382;7.372;2023-07-09T00:43:15;10.85;;;5.53;;
71502;SDS011;59322;51.382;7.372;2023-07-09T00:45:41;8.32;;;5.38;;
71502;SDS011;59322;51.382;7.372;2023-07-09T00:48:09;8.00;;;5.45;;
71502;SDS011;59322;51.382;7.372;2023-07-09T00:50:42;7.85;;;5.53;;
71502;SDS011;59322;51.382;7.372;2023-07-09T00:53:16;10.27;;;5.53;;
71502;SDS011;59322;51.382;7.372;2023-07-09T00:55:42;9.90;;;5.78;;
71502;SDS011;59322;51.382;7.372;2023-07-09T00:58:10;8.07;;;5.75;;
71502;SDS011;59322;51.382;7.372;2023-07-09T01:00:41;10.48;;;5.57;;
71502;SDS011;59322;51.382;7.372;2023-07-09T01:03:09;8.43;;;5.90;;
71502;SDS011;59322;51.382;7.372;2023-07-09T01:05:36;9.35;;;5.78;;
71502;SDS011;59322;51.382;7.372;2023-07-09T01:08:02;8.45;;;5.55;;
71502;SDS011;59322;51.382;7.372;2023-07-09T01:10:28;7.90;;;5.47;;
71502;SDS011;59322;51.382;7.372;2023-07-09T01:12:54;7.75;;;5.20;;
71502;SDS011;59322;51.382;7.372;2023-07-09T01:15:20;9.65;;;6.03;;
71502;SDS011;59322;51.382;7.372;2023-07-09T01:17:46;10.25;;;5.60;;
71502;SDS011;59322;51.382;7.372;2023-07-09T01:20:16;7.75;;;5.80;;
71502;SDS011;59322;51.382;7.372;2023-07-09T01:22:42;9.73;;;5.38;;
71502;SDS011;59322;51.382;7.372;2023-07-09T01:25:08;10.07;;;5.72;;
71502;SDS011;59322;51.382;7.372;2023-07-09T01:27:38;8.27;;;5.72;;
71502;SDS011;59322;51.382;7.372;2023-07-09T01:30:09;9.27;;;5.50;;
71502;SDS011;59322;51.382;7.372;2023-07-09T01:32:36;12.70;;;6.53;;
71502;SDS011;59322;51.382;7.372;2023-07-09T01:35:03;10.48;;;5.80;;
71502;SDS011;59322;51.382;7.372;2023-07-09T01:37:30;8.02;;;5.82;;
71502;SDS011;59322;51.382;7.372;2023-07-09T01:39:56;9.13;;;5.25;;
71502;SDS011;59322;51.382;7.372;2023-07-09T01:42:23;9.98;;;5.50;;
71502;SDS011;59322;51.382;7.372;2023-07-09T01:44:50;9.55;;;5.60;;
71502;SDS011;59322;51.382;7.372;2023-07-09T01:47:17;7.90;;;5.90;;
71502;SDS011;59322;51.382;7.372;2023-07-09T01:49:43;11.07;;;6.13;;
71502;SDS011;59322;51.382;7.372;2023-07-09T01:52:09;10.20;;;6.38;;
71502;SDS011;59322;51.382;7.372;2023-07-09T01:54:35;14.48;;;5.78;;
71502;SDS011;59322;51.382;7.372;2023-07-09T01:57:14;10.32;;;6.95;;
71502;SDS011;59322;51.382;7.372;2023-07-09T01:59:41;9.27;;;6.82;;
71502;SDS011;59322;51.382;7.372;2023-07-09T02:02:08;9.35;;;6.57;;
71502;SDS011;59322;51.382;7.372;2023-07-09T02:04:34;11.68;;;6.10;;
71502;SDS011;59322;51.382;7.372;2023-07-09T02:07:00;9.10;;;6.50;;
71502;SDS011;59322;51.382;7.372;2023-07-09T02:09:25;8.75;;;6.32;;
71502;SDS011;59322;51.382;7.372;2023-07-09T02:11:51;11.68;;;6.60;;
71502;SDS011;59322;51.382;7.372;2023-07-09T02:14:17;10.35;;;6.57;;
71502;SDS011;59322;51.382;7.372;2023-07-09T02:16:43;10.20;;;6.65;;
71502;SDS011;59322;51.382;7.372;2023-07-09T02:19:09;11.15;;;6.68;;
71502;SDS011;59322;51.382;7.372;2023-07-09T02:21:35;11.20;;;6.60;;
71502;SDS011;59322;51.382;7.372;2023-07-09T02:24:01;10.48;;;6.57;;
71502;SDS011;59322;51.382;7.372;2023-07-09T02:26:27;12.13;;;6.88;;
71502;SDS011;59322;51.382;7.372;2023-07-09T02:28:52;9.93;;;6.82;;
71502;SDS011;59322;51.382;7.372;2023-07-09T02:31:18;9.02;;;6.78;;
71502;SDS011;59322;51.382;7.372;2023-07-09T02:33:44;11.70;;;6.30;;
71502;SDS011;59322;51.382;7.372;2023-07-09T02:36:10;10.02;;;7.18;;
71502;SDS011;59322;51.382;7.372;2023-07-09T02:38:36;12.02;;;7.05;;
71502;SDS011;59322;51.382;7.372;2023-07-09T02:41:02;12.98;;;6.43;;
71502;SDS011;59322;51.382;7.372;2023-07-09T02:43:28;9.43;;;6.28;;
71502;SDS011;59322;51.382;7.372;2023-07-09T02:45:54;8.32;;;6.80;;
71502;SDS011;59322;51.382;7.372;2023-07-09T02:48:20;10.23;;;7.05;;
71502;SDS011;59322;51.382;7.372;2023-07-09T02:50:46;11.07;;;7.47;;
71502;SDS011;59322;51.382;7.372;2023-07-09T02:53:11;8.45;;;6.32;;
71502;SDS011;59322;51.382;7.372;2023-07-09T02:55:37;9.13;;;6.75;;
71502;SDS011;59322;51.382;7.372;2023-07-09T02:58:03;12.68;;;7.13;;
71502;SDS011;59322;51.382;7.372;2023-07-09T03:00:29;9.57;;;6.60;;
71502;SDS011;59322;51.382;7.372;2023-07-09T03:02:55;11.77;;;7.05;;
71502;SDS011;59322;51.382;7.372;2023-07-09T03:05:21;11.82;;;7.40;;
71502;SDS011;59322;51.382;7.372;2023-07-09T03:07:47;11.35;;;7.13;;
71502;SDS011;59322;51.382;7.372;2023-07-09T03:10:13;9.23;;;7.45;;
71502;SDS011;59322;51.382;7.372;2023-07-09T03:12:39;8.80;;;7.22;;
71502;SDS011;59322;51.382;7.372;2023-07-09T03:15:05;12.80;;;7.63;;
71502;SDS011;59322;51.382;7.372;2023-07-09T03:17:31;9.32;;;6.75;;
71502;SDS011;59322;51.382;7.372;2023-07-09T03:19:57;11.07;;;7.32;;
71502;SDS011;59322;51.382;7.372;2023-07-09T03:22:22;9.30;;;6.85;;
71502;SDS011;59322;51.382;7.372;2023-07-09T03:24:48;10.52;;;7.18;;
71502;SDS011;59322;51.382;7.372;2023-07-09T03:27:14;12.70;;;7.30;;
71502;SDS011;59322;51.382;7.372;2023-07-09T03:29:40;9.05;;;7.25;;
71502;SDS011;59322;51.382;7.372;2023-07-09T03:32:06;10.90;;;7.32;;
71502;SDS011;59322;51.382;7.372;2023-07-09T03:34:32;10.95;;;7.50;;
71502;SDS011;59322;51.382;7.372;2023-07-09T03:36:58;10.32;;;7.28;;
71502;SDS011;59322;51.382;7.372;2023-07-09T03:39:24;11.27;;;8.38;;
71502;SDS011;59322;51.382;7.372;2023-07-09T03:41:50;11.15;;;7.35;;
71502;SDS011;59322;51.382;7.372;2023-07-09T03:44:16;12.07;;;7.57;;
71502;SDS011;59322;51.382;7.372;2023-07-09T03:46:42;15.77;;;8.10;;
71502;SDS011;59322;51.382;7.372;2023-07-09T03:49:07;12.43;;;7.35;;
71502;SDS011;59322;51.382;7.372;2023-07-09T03:51:33;11.02;;;7.63;;
71502;SDS011;59322;51.382;7.372;2023-07-09T03:53:59;10.40;;;7.88;;
71502;SDS011;59322;51.382;7.372;2023-07-09T03:56:25;10.70;;;7.93;;
71502;SDS011;59322;51.382;7.372;2023-07-09T03:58:51;10.18;;;7.80;;
71502;SDS011;59322;51.382;7.372;2023-07-09T04:01:17;13.05;;;7.43;;
71502;SDS011;59322;51.382;7.372;2023-07-09T04:03:43;11.57;;;7.07;;
71502;SDS011;59322;51.382;7.372;2023-07-09T04:06:09;11.65;;;7.20;;
71502;SDS011;59322;51.382;7.372;2023-07-09T04:08:35;12.25;;;7.38;;
71502;SDS011;59322;51.382;7.372;2023-07-09T04:11:01;13.52;;;7.22;;
71502;SDS011;59322;51.382;7.372;2023-07-09T04:13:27;9.45;;;7.55;;
71502;SDS011;59322;51.382;7.372;2023-07-09T04:15:54;12.20;;;7.35;;
71502;SDS011;59322;51.382;7.372;2023-07-09T04:18:20;11.43;;;7.05;;
71502;SDS011;59322;51.382;7.372;2023-07-09T04:20:49;9.50;;;6.88;;
71502;SDS011;59322;51.382;7.372;2023-07-09T04:23:16;11.57;;;7.82;;
71502;SDS011;59322;51.382;7.372;2023-07-09T04:25:41;13.90;;;6.75;;
71502;SDS011;59322;51.382;7.372;2023-07-09T04:28:07;9.85;;;7.32;;
71502;SDS011;59322;51.382;7.372;2023-07-09T04:30:33;9.13;;;7.53;;
71502;SDS011;59322;51.382;7.372;2023-07-09T04:32:59;9.73;;;7.47;;
71502;SDS011;59322;51.382;7.372;2023-07-09T04:35:25;13.00;;;8.32;;
71502;SDS011;59322;51.382;7.372;2023-07-09T04:37:51;11.18;;;7.57;;
71502;SDS011;59322;51.382;7.372;2023-07-09T04:40:17;11.68;;;7.65;;
71502;SDS011;59322;51.382;7.372;2023-07-09T04:42:43;9.88;;;6.95;;
71502;SDS011;59322;51.382;7.372;2023-07-09T04:45:10;9.85;;;7.43;;
71502;SDS011;59322;51.382;7.372;2023-07-09T04:47:36;12.90;;;7.90;;
71502;SDS011;59322;51.382;7.372;2023-07-09T04:50:03;12.02;;;7.07;;
71502;SDS011;59322;51.382;7.372;2023-07-09T04:52:29;10.48;;;7.47;;
71502;SDS011;59322;51.382;7.372;2023-07-09T04:54:55;11.32;;;7.18;;
71502;SDS011;59322;51.382;7.372;2023-07-09T04:57:21;12.38;;;7.22;;
71502;SDS011;59322;51.382;7.372;2023-07-09T04:59:47;12.40;;;7.70;;
71502;SDS011;59322;51.382;7.372;2023-07-09T05:02:12;8.90;;;7.22;;
71502;SDS011;59322;51.382;7.372;2023-07-09T05:04:38;10.32;;;7.20;;
71502;SDS011;59322;51.382;7.372;2023-07-09T05:07:04;12.55;;;7.75;;
71502;SDS011;59322;51.382;7.372;2023-07-09T05:09:30;10.90;;;7.53;;
71502;SDS011;59322;51.382;7.372;2023-07-09T05:11:56;11.85;;;8.20;;
71502;SDS011;59322;51.382;7.372;2023-07-09T05:14:22;10.57;;;7.38;;
71502;SDS011;59322;51.382;7.372;2023-07-09T05:16:48;11.05;;;8.05;;
71502;SDS011;59322;51.382;7.372;2023-07-09T05:19:14;11.60;;;7.88;;
71502;SDS011;59322;51.382;7.372;2023-07-09T05:21:40;15.48;;;7.47;;
71502;SDS011;59322;51.382;7.372;2023-07-09T05:24:06;10.45;;;8.02;;
71502;SDS011;59322;51.382;7.372;2023-07-09T05:26:32;11.38;;;7.75;;
71502;SDS011;59322;51.382;7.372;2023-07-09T05:28:57;14.65;;;7.32;;
71502;SDS011;59322;51.382;7.372;2023-07-09T05:31:23;9.73;;;7.45;;
71502;SDS011;59322;51.382;7.372;2023-07-09T05:33:49;12.32;;;8.25;;
71502;SDS011;59322;51.382;7.372;2023-07-09T05:36:15;10.32;;;8.15;;
71502;SDS011;59322;51.382;7.372;2023-07-09T05:38:42;13.38;;;8.35;;
71502;SDS011;59322;51.382;7.372;2023-07-09T05:41:08;10.57;;;8.35;;
71502;SDS011;59322;51.382;7.372;2023-07-09T05:43:33;12.00;;;7.53;;
71502;SDS011;59322;51.382;7.372;2023-07-09T05:46:01;14.50;;;8.35;;
71502;SDS011;59322;51.382;7.372;2023-07-09T05:48:26;10.48;;;8.35;;
71502;SDS011;59322;51.382;7.372;2023-07-09T05:50:53;12.57;;;8.85;;
71502;SDS011;59322;51.382;7.372;2023-07-09T05:53:19;11.95;;;9.02;;
71502;SDS011;59322;51.382;7.372;2023-07-09T05:55:45;14.80;;;8.38;;
71502;SDS011;59322;51.382;7.372;2023-07-09T05:58:11;11.35;;;8.13;;
71502;SDS011;59322;51.382;7.372;2023-07-09T06:00:37;11.90;;;8.63;;
71502;SDS011;59322;51.382;7.372;2023-07-09T06:03:03;12.60;;;9.05;;
71502;SDS011;59322;51.382;7.372;2023-07-09T06:05:29;13.40;;;8.50;;
71502;SDS011;59322;51.382;7.372;2023-07-09T06:07:55;15.13;;;9.40;;
71502;SDS011;59322;51.382;7.372;2023-07-09T06:10:21;13.80;;;8.70;;
71502;SDS011;59322;51.382;7.372;2023-07-09T06:12:47;12.93;;;10.02;;
71502;SDS011;59322;51.382;7.372;2023-07-09T06:15:12;13.35;;;8.80;;
71502;SDS011;59322;51.382;7.372;2023-07-09T06:17:38;14.23;;;8.32;;
71502;SDS011;59322;51.382;7.372;2023-07-09T06:20:04;11.77;;;7.88;;
71502;SDS011;59322;51.382;7.372;2023-07-09T06:22:33;10.75;;;8.95;;
71502;SDS011;59322;51.382;7.372;2023-07-09T06:24:59;12.25;;;8.43;;
71502;SDS011;59322;51.382;7.372;2023-07-09T06:27:25;11.77;;;8.68;;
71502;SDS011;59322;51.382;7.372;2023-07-09T06:29:51;14.98;;;8.88;;
71502;SDS011;59322;51.382;7.372;2023-07-09T06:32:17;11.02;;;8.80;;
71502;SDS011;59322;51.382;7.372;2023-07-09T06:34:42;10.60;;;8.68;;
71502;SDS011;59322;51.382;7.372;2023-07-09T06:37:08;12.93;;;8.43;;
71502;SDS011;59322;51.382;7.372;2023-07-09T06:39:34;12.73;;;8.45;;
71502;SDS011;59322;51.382;7.372;2023-07-09T06:42:00;11.65;;;8.63;;
71502;SDS011;59322;51.382;7.372;2023-07-09T06:44:26;13.40;;;8.88;;
71502;SDS011;59322;51.382;7.372;2023-07-09T06:46:52;12.88;;;8.63;;
71502;SDS011;59322;51.382;7.372;2023-07-09T06:49:18;11.70;;;8.43;;
71502;SDS011;59322;51.382;7.372;2023-07-09T06:51:44;12.30;;;9.00;;
71502;SDS011;59322;51.382;7.372;2023-07-09T06:54:11;12.70;;;8.82;;
71502;SDS011;59322;51.382;7.372;2023-07-09T06:56:37;12.75;;;8.52;;
71502;SDS011;59322;51.382;7.372;2023-07-09T06:59:03;12.68;;;8.95;;
71502;SDS011;59322;51.382;7.372;2023-07-09T07:01:29;12.95;;;9.02;;
71502;SDS011;59322;51.382;7.372;2023-07-09T07:03:55;11.15;;;8.63;;
71502;SDS011;59322;51.382;7.372;2023-07-09T07:06:20;12.50;;;8.25;;
71502;SDS011;59322;51.382;7.372;2023-07-09T07:08:46;14.63;;;8.05;;
71502;SDS011;59322;51.382;7.372;2023-07-09T07:11:12;10.50;;;8.50;;
71502;SDS011;59322;51.382;7.372;2023-07-09T07:13:39;10.73;;;8.90;;
71502;SDS011;59322;51.382;7.372;2023-07-09T07:16:06;15.35;;;8.95;;
71502;SDS011;59322;51.382;7.372;2023-07-09T07:18:32;13.00;;;9.30;;
71502;SDS011;59322;51.382;7.372;2023-07-09T07:20:58;13.43;;;8.63;;
71502;SDS011;59322;51.382;7.372;2023-07-09T07:23:24;11.65;;;8.27;;
71502;SDS011;59322;51.382;7.372;2023-07-09T07:25:50;12.20;;;9.88;;
71502;SDS011;59322;51.382;7.372;2023-07-09T07:28:16;12.02;;;8.63;;
71502;SDS011;59322;51.382;7.372;2023-07-09T07:30:42;13.05;;;9.15;;
71502;SDS011;59322;51.382;7.372;2023-07-09T07:33:08;11.40;;;8.90;;
71502;SDS011;59322;51.382;7.372;2023-07-09T07:35:34;12.13;;;9.00;;
71502;SDS011;59322;51.382;7.372;2023-07-09T07:38:00;12.32;;;9.27;;
71502;SDS011;59322;51.382;7.372;2023-07-09T07:40:25;11.43;;;9.27;;
71502;SDS011;59322;51.382;7.372;2023-07-09T07:42:51;12.68;;;9.30;;
71502;SDS011;59322;51.382;7.372;2023-07-09T07:45:17;12.82;;;9.20;;
71502;SDS011;59322;51.382;7.372;2023-07-09T07:47:43;10.82;;;9.05;;
71502;SDS011;59322;51.382;7.372;2023-07-09T07:50:09;11.82;;;8.48;;
71502;SDS011;59322;51.382;7.372;2023-07-09T07:52:35;11.95;;;9.13;;
71502;SDS011;59322;51.382;7.372;2023-07-09T07:55:01;13.85;;;9.02;;
71502;SDS011;59322;51.382;7.372;2023-07-09T07:57:27;11.25;;;8.73;;
71502;SDS011;59322;51.382;7.372;2023-07-09T07:59:53;13.00;;;9.82;;
71502;SDS011;59322;51.382;7.372;2023-07-09T08:02:20;13.38;;;8.98;;
71502;SDS011;59322;51.382;7.372;2023-07-09T08:04:46;11.40;;;9.32;;
71502;SDS011;59322;51.382;7.372;2023-07-09T08:07:12;13.13;;;9.10;;
71502;SDS011;59322;51.382;7.372;2023-07-09T08:09:38;10.32;;;9.23;;
71502;SDS011;59322;51.382;7.372;2023-07-09T08:12:04;13.73;;;9.40;;
71502;SDS011;59322;51.382;7.372;2023-07-09T08:14:30;15.45;;;9.70;;
71502;SDS011;59322;51.382;7.372;2023-07-09T08:16:56;13.95;;;9.35;;
71502;SDS011;59322;51.382;7.372;2023-07-09T08:19:22;12.07;;;9.55;;
71502;SDS011;59322;51.382;7.372;2023-07-09T08:21:48;12.02;;;9.02;;
71502;SDS011;59322;51.382;7.372;2023-07-09T08:24:13;13.77;;;9.57;;
71502;SDS011;59322;51.382;7.372;2023-07-09T08:26:39;12.40;;;8.90;;
71502;SDS011;59322;51.382;7.372;2023-07-09T08:29:05;12.40;;;9.63;;
71502;SDS011;59322;51.382;7.372;2023-07-09T08:31:31;13.00;;;10.15;;
71502;SDS011;59322;51.382;7.372;2023-07-09T08:33:57;13.35;;;9.45;;
71502;SDS011;59322;51.382;7.372;2023-07-09T08:36:23;11.57;;;9.70;;
71502;SDS011;59322;51.382;7.372;2023-07-09T08:38:49;15.00;;;9.50;;
71502;SDS011;59322;51.382;7.372;2023-07-09T08:48:51;11.70;;;10.50;;
71502;SDS011;59322;51.382;7.372;2023-07-09T08:51:19;15.02;;;9.88;;
71502;SDS011;59322;51.382;7.372;2023-07-09T08:53:52;13.82;;;10.45;;
71502;SDS011;59322;51.382;7.372;2023-07-09T08:56:19;13.63;;;10.70;;
71502;SDS011;59322;51.382;7.372;2023-07-09T08:58:45;15.20;;;10.73;;
71502;SDS011;59322;51.382;7.372;2023-07-09T09:01:19;11.57;;;10.38;;
71502;SDS011;59322;51.382;7.372;2023-07-09T09:03:47;13.02;;;10.10;;
71502;SDS011;59322;51.382;7.372;2023-07-09T09:06:15;12.07;;;10.32;;
71502;SDS011;59322;51.382;7.372;2023-07-09T09:08:46;11.27;;;10.02;;
71502;SDS011;59322;51.382;7.372;2023-07-09T09:13:45;15.77;;;11.45;;
71502;SDS011;59322;51.382;7.372;2023-07-09T09:16:14;13.77;;;10.55;;
71502;SDS011;59322;51.382;7.372;2023-07-09T09:18:43;13.30;;;9.93;;
71502;SDS011;59322;51.382;7.372;2023-07-09T09:21:20;12.95;;;10.82;;
71502;SDS011;59322;51.382;7.372;2023-07-09T09:23:48;11.93;;;10.43;;
71502;SDS011;59322;51.382;7.372;2023-07-09T09:26:33;15.20;;;10.40;;
71502;SDS011;59322;51.382;7.372;2023-07-09T09:28:59;13.45;;;10.43;;
71502;SDS011;59322;51.382;7.372;2023-07-09T09:31:26;15.07;;;10.32;;
71502;SDS011;59322;51.382;7.372;2023-07-09T09:33:52;10.98;;;9.73;;
71502;SDS011;59322;51.382;7.372;2023-07-09T09:36:22;11.55;;;9.88;;
71502;SDS011;59322;51.382;7.372;2023-07-09T09:38:49;13.57;;;11.38;;
71502;SDS011;59322;51.382;7.372;2023-07-09T09:41:16;12.80;;;10.15;;
71502;SDS011;59322;51.382;7.372;2023-07-09T09:43:43;13.23;;;10.15;;
71502;SDS011;59322;51.382;7.372;2023-07-09T09:46:09;13.38;;;10.13;;
71502;SDS011;59322;51.382;7.372;2023-07-09T09:48:40;11.25;;;9.90;;
71502;SDS011;59322;51.382;7.372;2023-07-09T09:51:09;10.40;;;9.30;;
71502;SDS011;59322;51.382;7.372;2023-07-09T09:53:37;10.15;;;9.15;;
71502;SDS011;59322;51.382;7.372;2023-07-09T09:56:05;10.90;;;9.38;;
71502;SDS011;59322;51.382;7.372;2023-07-09T09:58:31;10.98;;;9.85;;
71502;SDS011;59322;51.382;7.372;2023-07-09T10:00:57;10.07;;;9.07;;
71502;SDS011;59322;51.382;7.372;2023-07-09T10:03:34;12.57;;;9.98;;
71502;SDS011;59322;51.382;7.372;2023-07-09T10:06:02;12.25;;;9.65;;
71502;SDS011;59322;51.382;7.372;2023-07-09T10:08:46;13.43;;;9.50;;
71502;SDS011;59322;51.382;7.372;2023-07-09T10:13:52;11.93;;;10.00;;
71502;SDS011;59322;51.382;7.372;2023-07-09T10:18:58;10.52;;;9.55;;
71502;SDS011;59322;51.382;7.372;2023-07-09T10:26:54;14.32;;;9.88;;
71502;SDS011;59322;51.382;7.372;2023-07-09T10:37:07;10.30;;;8.93;;
71502;SDS011;59322;51.382;7.372;2023-07-09T10:39:37;9.32;;;8.43;;
71502;SDS011;59322;51.382;7.372;2023-07-09T10:42:04;11.65;;;8.68;;
71502;SDS011;59322;51.382;7.372;2023-07-09T10:47:00;9.13;;;8.20;;
71502;SDS011;59322;51.382;7.372;2023-07-09T10:49:30;9.70;;;8.13;;
71502;SDS011;59322;51.382;7.372;2023-07-09T10:52:13;9.13;;;8.23;;
71502;SDS011;59322;51.382;7.372;2023-07-09T10:54:46;9.60;;;8.57;;
71502;SDS011;59322;51.382;7.372;2023-07-09T10:57:19;10.13;;;8.98;;
71502;SDS011;59322;51.382;7.372;2023-07-09T10:59:48;9.93;;;8.38;;
71502;SDS011;59322;51.382;7.372;2023-07-09T11:02:19;9.88;;;8.88;;
71502;SDS011;59322;51.382;7.372;2023-07-09T11:04:48;9.68;;;8.13;;
71502;SDS011;59322;51.382;7.372;2023-07-09T11:07:17;8.88;;;8.05;;
71502;SDS011;59322;51.382;7.372;2023-07-09T11:09:44;13.63;;;11.43;;
71502;SDS011;59322;51.382;7.372;2023-07-09T11:12:12;43.72;;;37.85;;
71502;SDS011;59322;51.382;7.372;2023-07-09T11:14:45;19.65;;;15.52;;
71502;SDS011;59322;51.382;7.372;2023-07-09T11:17:15;10.98;;;9.82;;
71502;SDS011;59322;51.382;7.372;2023-07-09T11:19:43;13.80;;;10.63;;
71502;SDS011;59322;51.382;7.372;2023-07-09T11:24:50;14.85;;;10.63;;
71502;SDS011;59322;51.382;7.372;2023-07-09T11:27:18;11.32;;;10.13;;
71502;SDS011;59322;51.382;7.372;2023-07-09T11:29:45;10.55;;;7.97;;
71502;SDS011;59322;51.382;7.372;2023-07-09T11:32:17;11.25;;;9.20;;
71502;SDS011;59322;51.382;7.372;2023-07-09T11:34:44;10.15;;;9.15;;
71502;SDS011;59322;51.382;7.372;2023-07-09T11:37:11;10.32;;;8.27;;
71502;SDS011;59322;51.382;7.372;2023-07-09T11:42:03;13.13;;;9.00;;
71502;SDS011;59322;51.382;7.372;2023-07-09T11:44:48;10.63;;;9.20;;
71502;SDS011;59322;51.382;7.372;2023-07-09T11:47:22;13.18;;;11.90;;
71502;SDS011;59322;51.382;7.372;2023-07-09T11:49:54;12.02;;;8.82;;
71502;SDS011;59322;51.382;7.372;2023-07-09T11:52:24;10.10;;;8.70;;
71502;SDS011;59322;51.382;7.372;2023-07-09T11:54:53;9.65;;;8.48;;
71502;SDS011;59322;51.382;7.372;2023-07-09T11:57:19;10.85;;;9.55;;
71502;SDS011;59322;51.382;7.372;2023-07-09T11:59:44;10.50;;;9.43;;
71502;SDS011;59322;51.382;7.372;2023-07-09T12:02:18;12.02;;;10.40;;
71502;SDS011;59322;51.382;7.372;2023-07-09T12:04:44;10.35;;;9.35;;
71502;SDS011;59322;51.382;7.372;2023-07-09T12:07:13;13.75;;;12.13;;
71502;SDS011;59322;51.382;7.372;2023-07-09T12:09:40;11.05;;;9.95;;
71502;SDS011;59322;51.382;7.372;2023-07-09T12:12:19;13.07;;;11.63;;
71502;SDS011;59322;51.382;7.372;2023-07-09T12:14:46;12.38;;;11.13;;
71502;SDS011;59322;51.382;7.372;2023-07-09T12:17:12;12.68;;;10.63;;
71502;SDS011;59322;51.382;7.372;2023-07-09T12:19:37;11.80;;;9.65;;
71502;SDS011;59322;51.382;7.372;2023-07-09T12:22:06;11.75;;;9.30;;
71502;SDS011;59322;51.382;7.372;2023-07-09T12:24:39;9.73;;;8.73;;
71502;SDS011;59322;51.382;7.372;2023-07-09T12:27:18;9.98;;;9.07;;
71502;SDS011;59322;51.382;7.372;2023-07-09T12:29:44;16.08;;;8.95;;
71502;SDS011;59322;51.382;7.372;2023-07-09T12:32:11;13.13;;;8.93;;
71502;SDS011;59322;51.382;7.372;2023-07-09T12:34:37;12.40;;;9.43;;
71502;SDS011;59322;51.382;7.372;2023-07-09T12:37:03;11.35;;;9.18;;
71502;SDS011;59322;51.382;7.372;2023-07-09T12:39:29;14.38;;;12.82;;
71502;SDS011;59322;51.382;7.372;2023-07-09T12:41:59;14.45;;;12.77;;
71502;SDS011;59322;51.382;7.372;2023-07-09T12:44:25;12.98;;;9.52;;
71502;SDS011;59322;51.382;7.372;2023-07-09T12:46:53;10.55;;;9.55;;
71502;SDS011;59322;51.382;7.372;2023-07-09T12:49:25;10.93;;;9.32;;
71502;SDS011;59322;51.382;7.372;2023-07-09T12:54:18;10.50;;;9.40;;
71502;SDS011;59322;51.382;7.372;2023-07-09T12:56:45;10.35;;;9.15;;
71502;SDS011;59322;51.382;7.372;2023-07-09T12:59:56;9.57;;;8.55;;
71502;SDS011;59322;51.382;7.372;2023-07-09T13:02:01;10.38;;;8.82;;
71502;SDS011;59322;51.382;7.372;2023-07-09T13:04:37;10.77;;;9.68;;
71502;SDS011;59322;51.382;7.372;2023-07-09T13:07:04;10.60;;;9.65;;
71502;SDS011;59322;51.382;7.372;2023-07-09T13:09:30;10.55;;;9.52;;
71502;SDS011;59322;51.382;7.372;2023-07-09T13:11:56;12.20;;;10.75;;
71502;SDS011;59322;51.382;7.372;2023-07-09T13:14:26;11.77;;;10.68;;
71502;SDS011;59322;51.382;7.372;2023-07-09T13:16:52;12.90;;;11.25;;
71502;SDS011;59322;51.382;7.372;2023-07-09T13:19:19;12.85;;;10.18;;
71502;SDS011;59322;51.382;7.372;2023-07-09T13:21:45;11.00;;;10.00;;
71502;SDS011;59322;51.382;7.372;2023-07-09T13:24:19;13.05;;;11.73;;
71502;SDS011;59322;51.382;7.372;2023-07-09T13:26:46;11.95;;;10.95;;
71502;SDS011;59322;51.382;7.372;2023-07-09T13:29:13;11.02;;;9.93;;
71502;SDS011;59322;51.382;7.372;2023-07-09T13:31:39;14.77;;;10.95;;
71502;SDS011;59322;51.382;7.372;2023-07-09T13:34:08;11.82;;;10.57;;
71502;SDS011;59322;51.382;7.372;2023-07-09T13:36:39;11.00;;;9.80;;
71502;SDS011;59322;51.382;7.372;2023-07-09T13:39:07;12.23;;;11.02;;
71502;SDS011;59322;51.382;7.372;2023-07-09T13:41:33;10.75;;;9.75;;
71502;SDS011;59322;51.382;7.372;2023-07-09T13:43:59;9.98;;;9.18;;
71502;SDS011;59322;51.382;7.372;2023-07-09T13:46:25;11.20;;;9.38;;
71502;SDS011;59322;51.382;7.372;2023-07-09T13:48:51;9.05;;;8.25;;
71502;SDS011;59322;51.382;7.372;2023-07-09T13:51:21;9.32;;;8.52;;
71502;SDS011;59322;51.382;7.372;2023-07-09T13:53:48;10.27;;;8.63;;
71502;SDS011;59322;51.382;7.372;2023-07-09T13:56:14;9.63;;;8.68;;
71502;SDS011;59322;51.382;7.372;2023-07-09T13:58:41;9.90;;;8.68;;
71502;SDS011;59322;51.382;7.372;2023-07-09T14:01:15;11.07;;;8.77;;
71502;SDS011;59322;51.382;7.372;2023-07-09T14:03:41;10.07;;;8.55;;
71502;SDS011;59322;51.382;7.372;2023-07-09T14:06:14;10.55;;;7.97;;
71502;SDS011;59322;51.382;7.372;2023-07-09T14:08:40;9.90;;;7.70;;
71502;SDS011;59322;51.382;7.372;2023-07-09T14:11:13;10.20;;;7.90;;
71502;SDS011;59322;51.382;7.372;2023-07-09T14:13:40;8.00;;;7.15;;
71502;SDS011;59322;51.382;7.372;2023-07-09T14:16:06;8.02;;;7.18;;
71502;SDS011;59322;51.382;7.372;2023-07-09T14:18:32;8.32;;;7.07;;
71502;SDS011;59322;51.382;7.372;2023-07-09T14:20:58;11.00;;;7.15;;
71502;SDS011;59322;51.382;7.372;2023-07-09T14:23:24;10.57;;;6.90;;
71502;SDS011;59322;51.382;7.372;2023-07-09T14:25:50;10.60;;;7.32;;
71502;SDS011;59322;51.382;7.372;2023-07-09T14:28:17;9.07;;;7.30;;
71502;SDS011;59322;51.382;7.372;2023-07-09T14:30:44;9.13;;;6.82;;
71502;SDS011;59322;51.382;7.372;2023-07-09T14:33:17;9.60;;;6.57;;
71502;SDS011;59322;51.382;7.372;2023-07-09T14:35:44;9.73;;;7.03;;
71502;SDS011;59322;51.382;7.372;2023-07-09T14:40:38;8.20;;;7.03;;
71502;SDS011;59322;51.382;7.372;2023-07-09T14:43:07;9.57;;;7.32;;
71502;SDS011;59322;51.382;7.372;2023-07-09T14:45:34;9.00;;;7.22;;
71502;SDS011;59322;51.382;7.372;2023-07-09T14:48:00;10.07;;;6.80;;
71502;SDS011;59322;51.382;7.372;2023-07-09T14:50:26;7.93;;;7.13;;
71502;SDS011;59322;51.382;7.372;2023-07-09T14:52:52;10.35;;;7.55;;
71502;SDS011;59322;51.382;7.372;2023-07-09T14:55:21;10.52;;;7.63;;
71502;SDS011;59322;51.382;7.372;2023-07-09T14:57:47;10.88;;;7.72;;
71502;SDS011;59322;51.382;7.372;2023-07-09T15:02:40;11.90;;;8.05;;
71502;SDS011;59322;51.382;7.372;2023-07-09T15:05:11;11.45;;;8.20;;
71502;SDS011;59322;51.382;7.372;2023-07-09T15:07:38;11.30;;;7.78;;
71502;SDS011;59322;51.382;7.372;2023-07-09T15:10:04;11.07;;;8.35;;
71502;SDS011;59322;51.382;7.372;2023-07-09T15:12:30;12.30;;;8.75;;
71502;SDS011;59322;51.382;7.372;2023-07-09T15:15:00;11.73;;;8.13;;
71502;SDS011;59322;51.382;7.372;2023-07-09T15:17:26;9.13;;;8.18;;
71502;SDS011;59322;51.382;7.372;2023-07-09T15:19:52;14.63;;;8.50;;